Terminal Aerodrome Forecast
Issued by NWS

Home | Current Version | Previous Version | Text Only | Print | Product List | Glossary On
Versions: 1 2 3 4 5 6 7 8 9 10 11 12 13 14 15 16 17
000
FTUS41 KGYX 271031 AAB
TAFRKD
TAF AMD
KRKD 271031Z 2711/2806 24007KT P6SM BKN020
     FM271400 24006KT 5SM -SHRA BR BKN007 OVC025
     FM271800 04006KT P6SM BKN025 OVC040
      AMD LTD TO CLD VIS AND WIND=

USA.gov is the U.S. government's official web portal to all federal, state and local government web resources and services.